createdAt,value
2017-08-22T00:00:37.550Z,6.50
2017-08-22T00:03:06.855Z,7.23
2017-08-22T00:05:36.298Z,7.37
2017-08-22T00:08:05.758Z,7.07
2017-08-22T00:10:35.211Z,5.83
2017-08-22T00:13:04.687Z,6.07
2017-08-22T00:15:34.231Z,6.60
2017-08-22T00:18:03.687Z,7.33
2017-08-22T00:20:33.151Z,9.33
2017-08-22T00:23:02.926Z,6.47
2017-08-22T00:25:32.398Z,5.80
2017-08-22T00:28:01.855Z,5.03
2017-08-22T00:30:31.310Z,7.87
2017-08-22T00:33:00.836Z,5.47
2017-08-22T00:35:30.299Z,8.60
2017-08-22T00:37:59.764Z,5.37
2017-08-22T00:40:29.220Z,4.80
2017-08-22T00:42:58.688Z,6.10
2017-08-22T00:45:27.779Z,4.87
2017-08-22T00:47:57.235Z,6.43
2017-08-22T00:50:26.684Z,7.83
2017-08-22T00:52:55.791Z,6.90
2017-08-22T00:55:25.234Z,5.47
2017-08-22T00:57:54.714Z,5.93
2017-08-22T01:00:24.155Z,6.93
2017-08-22T01:02:53.604Z,7.77
2017-08-22T01:05:23.082Z,6.43
2017-08-22T01:07:52.543Z,6.43
2017-08-22T01:10:21.994Z,4.90
2017-08-22T01:12:51.454Z,6.83
2017-08-22T01:15:20.938Z,6.20
2017-08-22T01:17:50.379Z,6.50
2017-08-22T01:20:19.555Z,5.93
2017-08-22T01:22:49.036Z,6.80
2017-08-22T01:25:18.490Z,8.10
2017-08-22T01:27:47.586Z,7.00
2017-08-22T01:30:17.054Z,5.43
2017-08-22T01:32:46.529Z,7.97
2017-08-22T01:35:15.630Z,6.30
2017-08-22T01:37:45.114Z,6.27
2017-08-22T01:40:14.587Z,12.07
2017-08-22T01:42:44.030Z,9.03
2017-08-22T01:45:13.500Z,9.57
2017-08-22T01:47:42.975Z,5.77
2017-08-22T01:50:12.443Z,7.83
2017-08-22T01:52:41.891Z,8.23
2017-08-22T01:55:11.366Z,14.43
2017-08-22T01:57:40.815Z,8.97
2017-08-22T02:00:10.278Z,8.83
2017-08-22T02:02:39.726Z,6.00
2017-08-22T02:05:09.208Z,7.20
2017-08-22T02:07:38.687Z,7.43
2017-08-22T02:10:08.142Z,6.73
2017-08-22T02:12:37.585Z,6.27
2017-08-22T02:15:07.142Z,5.60
2017-08-22T02:17:36.606Z,7.00
2017-08-22T02:20:06.083Z,5.67
2017-08-22T02:22:35.656Z,9.10
2017-08-22T02:25:05.299Z,9.17
2017-08-22T02:27:34.746Z,7.00
2017-08-22T02:30:04.354Z,6.50
2017-08-22T02:32:33.815Z,9.40
2017-08-22T02:35:03.429Z,5.50
2017-08-22T02:37:32.902Z,6.50
2017-08-22T02:40:02.535Z,7.10
2017-08-22T02:42:32.002Z,9.67
2017-08-22T02:45:01.529Z,6.27
2017-08-22T02:47:31.107Z,6.57
2017-08-22T02:50:00.671Z,6.00
2017-08-22T02:52:30.217Z,5.07
2017-08-22T02:54:59.677Z,6.30
2017-08-22T02:57:29.167Z,7.43
2017-08-22T02:59:58.673Z,7.70
2017-08-22T03:02:28.115Z,8.13
2017-08-22T03:04:57.575Z,8.30
2017-08-22T03:07:27.048Z,8.63
2017-08-22T03:09:56.500Z,7.20
2017-08-22T03:12:25.971Z,5.93
2017-08-22T03:14:55.423Z,14.73
2017-08-22T03:17:24.876Z,5.20
2017-08-22T03:19:54.350Z,6.07
2017-08-22T03:22:23.804Z,10.20
2017-08-22T03:24:53.308Z,6.80
2017-08-22T03:27:22.875Z,12.83
2017-08-22T03:29:52.403Z,5.83
2017-08-22T03:32:21.855Z,6.70
2017-08-22T03:34:51.310Z,6.13
2017-08-22T03:37:20.772Z,5.50
2017-08-22T03:39:50.220Z,6.33
2017-08-22T03:42:19.690Z,7.60
2017-08-22T03:44:49.160Z,6.23
2017-08-22T03:47:18.704Z,7.43
2017-08-22T03:49:48.172Z,8.57
2017-08-22T03:52:17.686Z,7.20
2017-08-22T03:54:47.142Z,5.60
2017-08-22T03:57:16.606Z,7.33
2017-08-22T03:59:46.055Z,5.53
2017-08-22T04:02:15.534Z,5.60
2017-08-22T04:04:44.994Z,5.77
2017-08-22T04:07:14.470Z,6.53
2017-08-22T04:09:43.938Z,8.63
2017-08-22T04:12:13.402Z,7.37
2017-08-22T04:14:42.863Z,10.43
2017-08-22T04:17:12.318Z,8.47
2017-08-22T04:19:41.789Z,8.43
2017-08-22T04:22:11.279Z,6.67
2017-08-22T04:24:40.883Z,6.20
2017-08-22T04:27:10.434Z,5.47
2017-08-22T04:29:39.898Z,5.53
2017-08-22T04:32:09.379Z,6.70
2017-08-22T04:34:38.859Z,5.90
2017-08-22T04:37:08.319Z,6.83
2017-08-22T04:39:37.758Z,6.83
2017-08-22T04:42:07.222Z,6.00
2017-08-22T04:44:36.675Z,5.90
2017-08-22T04:47:06.133Z,9.90
2017-08-22T04:50:14.394Z,12.60
2017-08-22T04:52:43.875Z,5.23
2017-08-22T04:55:13.339Z,4.73
2017-08-22T04:57:42.799Z,6.70
2017-08-22T05:00:12.266Z,5.70
2017-08-22T05:02:41.736Z,5.50
2017-08-22T05:05:10.974Z,6.30
2017-08-22T05:07:40.419Z,6.13
2017-08-22T05:10:09.886Z,5.83
2017-08-22T05:12:39.334Z,8.23
2017-08-22T05:15:08.843Z,5.90
2017-08-22T05:17:38.404Z,7.10
2017-08-22T05:20:07.865Z,8.67
2017-08-22T05:22:37.322Z,6.67
2017-08-22T05:25:06.783Z,6.40
2017-08-22T05:27:36.254Z,5.93
2017-08-22T05:30:05.709Z,7.07
2017-08-22T05:32:35.230Z,6.93
2017-08-22T05:35:04.683Z,7.13
2017-08-22T05:37:34.128Z,6.10
2017-08-22T05:40:03.635Z,7.23
2017-08-22T05:42:33.143Z,8.87
2017-08-22T05:45:02.599Z,6.00
2017-08-22T05:47:32.155Z,6.73
2017-08-22T05:50:02.074Z,6.57
2017-08-22T05:52:30.522Z,6.00
2017-08-22T05:54:59.091Z,7.00
2017-08-22T05:57:27.544Z,7.23
2017-08-22T05:59:56.115Z,6.50
2017-08-22T06:02:24.685Z,12.40
2017-08-22T06:04:53.145Z,6.90
2017-08-22T06:07:21.624Z,5.97
2017-08-22T06:09:50.113Z,9.70
2017-08-22T06:12:18.588Z,7.33
2017-08-22T06:14:47.159Z,7.93
2017-08-22T06:17:15.636Z,8.57
2017-08-22T06:19:44.111Z,13.80
2017-08-22T06:22:12.663Z,8.63
2017-08-22T06:24:41.111Z,8.40
2017-08-22T06:27:09.754Z,7.73
2017-08-22T06:29:38.227Z,9.50
2017-08-22T06:32:06.680Z,7.70
2017-08-22T06:34:35.480Z,10.50
2017-08-22T06:37:03.932Z,8.30
2017-08-22T06:39:32.411Z,8.83
2017-08-22T06:42:00.967Z,10.83
2017-08-22T06:44:29.472Z,13.50
2017-08-22T06:46:57.941Z,9.57
2017-08-22T06:49:26.435Z,12.67
2017-08-22T06:51:54.964Z,11.83
2017-08-22T06:54:23.555Z,10.80
2017-08-22T06:56:52.056Z,14.83
2017-08-22T06:59:20.515Z,9.90
2017-08-22T07:01:49.020Z,9.80
2017-08-22T07:04:17.487Z,12.30
2017-08-22T07:06:45.983Z,10.30
2017-08-22T07:09:14.459Z,11.40
2017-08-22T07:11:42.926Z,9.20
2017-08-22T07:14:11.399Z,9.37
2017-08-22T07:16:39.888Z,11.80
2017-08-22T07:19:08.366Z,10.13
2017-08-22T07:21:36.828Z,9.67
2017-08-22T07:24:05.314Z,11.60
2017-08-22T07:26:33.799Z,9.63
2017-08-22T07:29:02.261Z,12.07
2017-08-22T07:31:31.492Z,11.20
2017-08-22T07:33:59.978Z,10.10
2017-08-22T07:36:28.571Z,11.97
2017-08-22T07:38:57.200Z,8.80
2017-08-22T07:41:25.787Z,9.90
2017-08-22T07:43:55.019Z,9.73
2017-08-22T07:46:23.498Z,8.90
2017-08-22T07:48:51.967Z,6.30
2017-08-22T07:51:20.454Z,10.20
2017-08-22T07:53:48.992Z,10.43
2017-08-22T07:56:17.448Z,8.90
2017-08-22T07:58:45.919Z,7.57
2017-08-22T08:01:14.400Z,8.90
2017-08-22T08:03:42.694Z,9.20
2017-08-22T08:06:11.204Z,6.10
2017-08-22T08:08:39.676Z,6.60
2017-08-22T08:11:07.994Z,6.10
2017-08-22T08:13:37.228Z,8.27
2017-08-22T08:16:05.712Z,11.13
2017-08-22T08:18:34.179Z,9.93
2017-08-22T08:21:03.460Z,10.17
2017-08-22T08:23:31.919Z,8.80
2017-08-22T08:25:59.699Z,9.20
2017-08-22T08:28:28.178Z,10.90
2017-08-22T08:30:56.663Z,12.33
2017-08-22T08:33:25.142Z,7.00
2017-08-22T08:35:53.627Z,9.17
2017-08-22T08:38:22.107Z,4.87
2017-08-22T08:40:50.635Z,6.17
2017-08-22T08:43:19.132Z,7.73
2017-08-22T08:45:47.583Z,4.20
2017-08-22T08:48:16.079Z,5.27
2017-08-22T08:50:44.536Z,7.10
2017-08-22T08:53:12.827Z,5.47
2017-08-22T08:55:41.340Z,5.43
2017-08-22T08:58:09.790Z,4.63
2017-08-22T09:00:38.260Z,12.63
2017-08-22T09:03:06.715Z,7.50
2017-08-22T09:05:35.266Z,5.30
2017-08-22T09:08:03.759Z,5.07
2017-08-22T09:10:32.211Z,6.07
2017-08-22T09:13:00.692Z,3.83
2017-08-22T09:15:29.244Z,10.40
2017-08-22T09:17:57.736Z,12.33
2017-08-22T09:20:26.203Z,4.57
2017-08-22T09:22:54.699Z,8.73
2017-08-22T09:25:23.151Z,5.20
2017-08-22T09:27:51.432Z,6.73
2017-08-22T09:30:19.897Z,4.50
2017-08-22T09:32:48.362Z,4.30
2017-08-22T09:35:16.831Z,5.90
2017-08-22T09:37:45.282Z,4.47
2017-08-22T09:40:13.783Z,4.40
2017-08-22T09:42:42.247Z,7.43
2017-08-22T09:45:10.717Z,4.80
2017-08-22T09:47:39.232Z,4.77
2017-08-22T09:50:08.452Z,5.30
2017-08-22T09:52:36.960Z,8.30
2017-08-22T09:55:05.432Z,4.90
2017-08-22T09:57:33.956Z,4.80
2017-08-22T10:00:02.427Z,5.87
2017-08-22T10:02:30.880Z,8.13
2017-08-22T10:04:59.376Z,7.50
2017-08-22T10:07:27.961Z,7.60
2017-08-22T10:09:56.431Z,5.97
2017-08-22T10:12:24.904Z,4.30
2017-08-22T10:14:53.391Z,5.10
2017-08-22T10:17:21.875Z,3.63
2017-08-22T10:19:50.340Z,4.23
2017-08-22T10:22:18.825Z,7.77
2017-08-22T10:24:47.284Z,4.20
2017-08-22T10:27:15.866Z,4.83
2017-08-22T10:29:44.318Z,5.07
2017-08-22T10:32:12.805Z,3.00
2017-08-22T10:34:41.259Z,4.90
2017-08-22T10:37:09.734Z,5.97
2017-08-22T10:39:38.213Z,6.27
2017-08-22T10:42:06.668Z,3.13
2017-08-22T10:44:35.220Z,3.50
2017-08-22T10:47:03.770Z,3.30
2017-08-22T10:49:32.252Z,4.83
2017-08-22T10:52:00.726Z,3.87
2017-08-22T10:54:29.207Z,2.80
2017-08-22T10:56:57.681Z,5.20
2017-08-22T10:59:26.386Z,2.80
2017-08-22T11:01:54.936Z,2.40
2017-08-22T11:04:24.171Z,3.73
2017-08-22T11:06:52.656Z,2.23
2017-08-22T11:09:21.116Z,3.57
2017-08-22T11:11:49.624Z,2.80
2017-08-22T11:14:18.082Z,7.53
2017-08-22T11:16:46.575Z,5.03
2017-08-22T11:19:15.031Z,4.97
2017-08-22T11:21:43.502Z,2.67
2017-08-22T11:24:11.980Z,2.63
2017-08-22T11:26:41.201Z,4.70
2017-08-22T11:29:09.675Z,4.17
2017-08-22T11:31:38.143Z,3.00
2017-08-22T11:34:07.376Z,3.30
2017-08-22T11:36:35.846Z,6.07
2017-08-22T11:39:03.662Z,4.10
2017-08-22T11:41:32.127Z,3.80
2017-08-22T11:44:00.600Z,8.23
2017-08-22T11:46:29.079Z,3.40
2017-08-22T11:48:57.547Z,5.43
2017-08-22T11:51:26.064Z,4.17
2017-08-22T11:53:54.519Z,4.50
2017-08-22T11:56:22.991Z,2.60
2017-08-22T11:58:51.094Z,3.17
2017-08-22T12:01:19.569Z,5.43
2017-08-22T12:03:48.019Z,2.37
2017-08-22T12:06:17.375Z,3.90
2017-08-22T12:08:45.794Z,6.97
2017-08-22T12:11:14.259Z,3.47
2017-08-22T12:13:42.739Z,3.30
2017-08-22T12:16:11.215Z,3.87
2017-08-22T12:18:39.651Z,4.87
2017-08-22T12:21:07.928Z,2.93
2017-08-22T12:23:36.224Z,2.83
2017-08-22T12:26:04.672Z,3.17
2017-08-22T12:28:33.143Z,2.07
2017-08-22T12:31:01.642Z,3.90
2017-08-22T12:33:29.769Z,5.10
2017-08-22T12:35:58.302Z,2.53
2017-08-22T12:38:27.207Z,3.83
2017-08-22T12:40:55.843Z,2.10
2017-08-22T12:43:24.299Z,3.30
2017-08-22T12:45:52.778Z,4.17
2017-08-22T12:48:21.223Z,2.70
2017-08-22T12:50:49.675Z,2.27
2017-08-22T12:53:18.147Z,4.27
2017-08-22T12:55:46.612Z,2.90
2017-08-22T12:58:15.087Z,4.53
2017-08-22T13:00:43.559Z,6.77
2017-08-22T13:03:12.035Z,3.83
2017-08-22T13:05:40.505Z,5.10
2017-08-22T13:08:09.011Z,4.30
2017-08-22T13:10:37.499Z,4.30
2017-08-22T13:13:06.032Z,6.60
2017-08-22T13:15:35.259Z,3.53
2017-08-22T13:18:03.751Z,4.33
2017-08-22T13:20:32.207Z,3.60
2017-08-22T13:23:00.680Z,4.33
2017-08-22T13:25:29.927Z,3.23
2017-08-22T13:27:58.380Z,4.00
2017-08-22T13:30:27.631Z,3.70
2017-08-22T13:32:56.087Z,4.73
2017-08-22T13:35:24.543Z,4.80
2017-08-22T13:37:53.159Z,3.10
2017-08-22T13:40:21.616Z,4.00
2017-08-22T13:42:50.089Z,4.27
2017-08-22T13:45:18.548Z,6.50
2017-08-22T13:47:47.771Z,3.30
2017-08-22T13:50:16.251Z,3.43
2017-08-22T13:52:44.704Z,4.00
2017-08-22T13:55:13.196Z,2.40
2017-08-22T13:57:42.652Z,4.37
2017-08-22T14:00:11.183Z,3.27
2017-08-22T14:02:40.498Z,2.60
2017-08-22T14:05:09.747Z,2.73
2017-08-22T14:07:38.228Z,2.30
2017-08-22T14:10:06.678Z,2.50
2017-08-22T14:12:35.194Z,3.20
2017-08-22T14:15:03.712Z,3.00
2017-08-22T14:17:32.280Z,2.77
2017-08-22T14:20:00.763Z,3.53
2017-08-22T14:22:29.238Z,2.97
2017-08-22T14:24:57.755Z,5.83
2017-08-22T14:27:26.980Z,5.57
2017-08-22T14:29:55.447Z,4.17
2017-08-22T14:32:23.916Z,4.07
2017-08-22T14:34:52.397Z,4.30
2017-08-22T14:37:21.645Z,3.60
2017-08-22T14:39:50.175Z,3.80
2017-08-22T14:42:18.668Z,2.77
2017-08-22T14:44:47.958Z,4.20
2017-08-22T14:47:16.497Z,5.10
2017-08-22T14:49:44.984Z,5.20
2017-08-22T14:52:13.487Z,4.83
2017-08-22T14:54:41.943Z,5.00
2017-08-22T14:57:10.453Z,5.53
2017-08-22T14:59:38.924Z,3.13
2017-08-22T15:02:07.417Z,3.87
2017-08-22T15:04:36.703Z,3.63
2017-08-22T15:07:05.157Z,2.63
2017-08-22T15:09:33.654Z,3.60
2017-08-22T15:12:02.136Z,2.70
2017-08-22T15:14:30.603Z,2.90
2017-08-22T15:16:59.078Z,5.10
2017-08-22T15:19:27.549Z,3.60
2017-08-22T15:21:56.025Z,3.03
2017-08-22T15:24:25.271Z,3.80
2017-08-22T15:26:53.733Z,7.40
2017-08-22T15:29:22.437Z,3.90
2017-08-22T15:31:50.880Z,3.90
2017-08-22T15:34:19.400Z,4.03
2017-08-22T15:36:47.859Z,4.67
2017-08-22T15:39:16.371Z,2.77
2017-08-22T15:41:44.854Z,5.47
2017-08-22T15:44:13.381Z,4.13
2017-08-22T15:46:41.875Z,5.40
2017-08-22T15:49:10.375Z,3.10
2017-08-22T15:51:38.889Z,3.43
2017-08-22T15:54:07.167Z,4.20
2017-08-22T15:56:35.666Z,3.77
2017-08-22T15:59:04.142Z,4.07
2017-08-22T16:01:32.607Z,4.93
2017-08-22T16:04:01.088Z,3.60
2017-08-22T16:06:30.237Z,5.20
2017-08-22T16:08:58.740Z,4.70
2017-08-22T16:11:27.210Z,3.73
2017-08-22T16:13:56.489Z,3.33
2017-08-22T16:16:24.956Z,4.50
2017-08-22T16:18:53.420Z,4.80
2017-08-22T16:21:22.054Z,3.83
2017-08-22T16:23:50.532Z,4.83
2017-08-22T16:26:19.019Z,3.70
2017-08-22T16:28:47.483Z,6.73
2017-08-22T16:31:15.980Z,5.77
2017-08-22T16:33:44.444Z,4.20
2017-08-22T16:36:12.927Z,4.20
2017-08-22T16:38:41.391Z,3.97
2017-08-22T16:41:09.915Z,4.97
2017-08-22T16:43:39.352Z,3.93
2017-08-22T16:46:07.843Z,3.90
2017-08-22T16:48:36.315Z,5.10
2017-08-22T16:51:04.801Z,8.77
2017-08-22T16:53:33.267Z,4.33
2017-08-22T16:56:01.764Z,3.80
2017-08-22T16:58:30.245Z,7.33
2017-08-22T17:00:58.708Z,6.17
2017-08-22T17:03:27.995Z,4.60
2017-08-22T17:05:56.459Z,3.73
2017-08-22T17:08:24.952Z,5.07
2017-08-22T17:10:53.431Z,4.30
2017-08-22T17:13:22.083Z,6.50
2017-08-22T17:15:50.579Z,4.83
2017-08-22T17:18:19.048Z,3.97
2017-08-22T17:20:47.495Z,3.63
2017-08-22T17:23:16.038Z,5.47
2017-08-22T17:25:44.505Z,6.27
2017-08-22T17:28:12.974Z,8.13
2017-08-22T17:30:41.460Z,7.20
2017-08-22T17:33:09.923Z,8.10
2017-08-22T17:35:38.413Z,5.60
2017-08-22T17:38:06.890Z,3.60
2017-08-22T17:40:35.351Z,5.27
2017-08-22T17:43:03.836Z,5.17
2017-08-22T17:45:32.995Z,6.00
2017-08-22T17:48:01.511Z,5.20
2017-08-22T17:50:29.995Z,5.00
2017-08-22T17:52:58.528Z,3.47
2017-08-22T17:55:26.999Z,4.00
2017-08-22T17:57:55.495Z,4.63
2017-08-22T18:00:23.980Z,6.03
2017-08-22T18:02:52.468Z,6.80
2017-08-22T18:05:20.935Z,6.07
2017-08-22T18:07:49.396Z,6.90
2017-08-22T18:10:17.897Z,5.50
2017-08-22T18:12:46.358Z,4.27
2017-08-22T18:15:14.857Z,5.63
2017-08-22T18:17:43.325Z,4.73
2017-08-22T18:20:11.796Z,3.97
2017-08-22T18:22:40.261Z,4.30
2017-08-22T18:25:08.731Z,3.90
2017-08-22T18:27:37.209Z,4.23
2017-08-22T18:30:05.344Z,6.97
2017-08-22T18:32:33.824Z,4.90
2017-08-22T18:35:02.321Z,4.50
2017-08-22T18:37:32.416Z,3.77
2017-08-22T18:40:00.876Z,3.93
2017-08-22T18:42:30.127Z,4.50
2017-08-22T18:44:58.603Z,3.87
2017-08-22T18:47:27.075Z,3.23
2017-08-22T18:49:55.551Z,7.23
2017-08-22T18:52:24.081Z,4.33
2017-08-22T18:54:52.579Z,2.93
2017-08-22T18:57:21.056Z,4.17
2017-08-22T18:59:49.732Z,4.83
2017-08-22T19:02:18.211Z,3.60
2017-08-22T19:04:46.708Z,4.00
2017-08-22T19:07:15.189Z,5.23
2017-08-22T19:09:43.679Z,3.63
2017-08-22T19:12:12.150Z,3.50
2017-08-22T19:14:40.627Z,3.33
2017-08-22T19:17:09.122Z,2.97
2017-08-22T19:19:38.418Z,4.07
2017-08-22T19:22:06.907Z,3.93
2017-08-22T19:24:35.526Z,4.73
2017-08-22T19:27:04.020Z,5.30
2017-08-22T19:29:32.515Z,4.33
2017-08-22T19:32:00.980Z,5.60
2017-08-22T19:34:29.467Z,6.80
2017-08-22T19:36:57.924Z,4.83
2017-08-22T19:39:26.392Z,9.27
2017-08-22T19:41:54.875Z,7.53
2017-08-22T19:44:24.118Z,6.10
2017-08-22T19:46:52.607Z,4.67
2017-08-22T19:49:21.092Z,4.80
2017-08-22T19:51:49.574Z,5.13
2017-08-22T19:54:18.159Z,4.67
2017-08-22T19:56:47.520Z,5.20
2017-08-22T19:59:16.755Z,5.57
2017-08-22T20:01:45.211Z,6.77
2017-08-22T20:04:13.917Z,7.00
2017-08-22T20:06:42.473Z,5.43
2017-08-22T20:09:11.803Z,4.83
2017-08-22T20:11:40.264Z,4.93
2017-08-22T20:14:08.751Z,4.17
2017-08-22T20:16:37.212Z,5.33
2017-08-22T20:19:05.700Z,5.73
2017-08-22T20:21:34.167Z,4.20
2017-08-22T20:24:02.659Z,5.80
2017-08-22T20:26:31.132Z,4.50
2017-08-22T20:28:59.658Z,4.97
2017-08-22T20:31:28.167Z,7.40
2017-08-22T20:33:56.651Z,5.20
2017-08-22T20:36:25.134Z,6.30
2017-08-22T20:38:53.713Z,5.33
2017-08-22T20:41:22.193Z,6.27
2017-08-22T20:43:50.664Z,5.20
2017-08-22T20:46:19.174Z,5.27
2017-08-22T20:48:47.656Z,4.77
2017-08-22T20:51:16.129Z,4.30
2017-08-22T20:53:44.631Z,4.67
2017-08-22T20:56:13.124Z,4.70
2017-08-22T20:58:41.575Z,5.00
2017-08-22T21:01:10.072Z,7.23
2017-08-22T21:03:38.528Z,7.47
2017-08-22T21:06:07.017Z,8.90
2017-08-22T21:08:35.502Z,7.67
2017-08-22T21:11:03.958Z,5.20
2017-08-22T21:13:32.512Z,5.63
2017-08-22T21:16:01.022Z,7.00
2017-08-22T21:18:29.512Z,4.93
2017-08-22T21:20:57.971Z,6.33
2017-08-22T21:23:26.468Z,9.43
2017-08-22T21:25:54.939Z,5.70
2017-08-22T21:28:23.412Z,6.40
2017-08-22T21:30:52.660Z,7.43
2017-08-22T21:33:21.139Z,5.23
2017-08-22T21:35:49.620Z,6.47
2017-08-22T21:38:18.099Z,5.30
2017-08-22T21:40:46.568Z,6.50
2017-08-22T21:43:14.857Z,5.30
2017-08-22T21:45:43.339Z,4.87
2017-08-22T21:48:11.972Z,5.27
2017-08-22T21:50:40.441Z,7.97
2017-08-22T21:53:09.088Z,5.83
2017-08-22T21:55:37.551Z,8.30
2017-08-22T21:58:06.043Z,5.33
2017-08-22T22:00:34.516Z,5.57
2017-08-22T22:03:03.020Z,8.07
2017-08-22T22:05:31.513Z,5.80
2017-08-22T22:07:59.999Z,8.60
2017-08-22T22:10:28.480Z,11.90
2017-08-22T22:12:57.055Z,6.37
2017-08-22T22:15:25.551Z,5.83
2017-08-22T22:17:54.035Z,5.30
2017-08-22T22:20:22.701Z,7.53
2017-08-22T22:22:51.172Z,5.80
2017-08-22T22:25:19.672Z,5.53
2017-08-22T22:27:48.119Z,5.50
2017-08-22T22:30:16.862Z,5.10
2017-08-22T22:32:45.323Z,7.03
2017-08-22T22:35:13.853Z,6.77
2017-08-22T22:37:42.387Z,8.83
2017-08-22T22:40:10.847Z,5.83
2017-08-22T22:42:39.317Z,5.90
2017-08-22T22:45:07.887Z,5.40
2017-08-22T22:47:36.348Z,5.50
2017-08-22T22:50:04.894Z,6.17
2017-08-22T22:52:33.369Z,5.23
2017-08-22T22:55:01.847Z,8.60
2017-08-22T22:57:30.343Z,6.87
2017-08-22T22:59:58.819Z,7.07
2017-08-22T23:02:27.275Z,7.07
2017-08-22T23:04:55.771Z,8.57
2017-08-22T23:07:24.219Z,6.13
2017-08-22T23:09:52.684Z,6.20
2017-08-22T23:12:21.161Z,6.97
2017-08-22T23:14:49.607Z,5.77
2017-08-22T23:17:17.731Z,6.23
2017-08-22T23:19:46.263Z,5.67
2017-08-22T23:22:14.758Z,6.37
2017-08-22T23:24:43.447Z,5.67
2017-08-22T23:27:11.912Z,8.93
2017-08-22T23:29:40.387Z,6.90
2017-08-22T23:32:08.863Z,9.03
2017-08-22T23:34:37.331Z,7.30
2017-08-22T23:37:05.811Z,6.17
2017-08-22T23:39:34.290Z,6.70
2017-08-22T23:42:02.791Z,7.53
2017-08-22T23:44:31.312Z,7.40
2017-08-22T23:46:59.785Z,6.23
2017-08-22T23:49:28.267Z,6.93
2017-08-22T23:51:56.724Z,7.23
2017-08-22T23:54:25.187Z,6.97
2017-08-22T23:56:53.655Z,6.20
2017-08-22T23:59:22.115Z,6.60
